Arlington, WA

6:03 PM PDT on August 27, 2014 (GMT -0700)
Arlington Municipal | Change Station
CLOSE
Current Station
Airport
Location: Arlington,
Elevation: 138 ft
Nearby Weather Stations

Elev 138 ft 48.16 °N, 122.16 °W | Updated 8 minutes ago

Mostly Cloudy
Mostly Cloudy
77 °F
Feels Like 77 °F
N
10
Wind Variable Wind from NW

Today
High -- | Low -- °F
--% Chance of Precip.
Yesterday
High -- | Low -- °F
Precip. -- in
6:18 AM 7:58 PM
Waxing Crescent, 5% visible
Pressure 30.02 in
Visibility 10.0 miles
Clouds Mostly Cloudy 10000 ft
Dew Point 61 °F
Humidity 57%
Rainfall 0.00 in
Snow Depth Not available.
UV 1 out of 12
Pollen 3.10 out of 12
PM2.5 Moderate
Flu Activity Not available.
METAR KAWO 280055Z AUTO 32009KT 10SM BKN100 25/16 A3002 RMK AO1

More Conditions Fewer Conditions

Pressure 30.02 in
Visibility 10.0 miles
Clouds Mostly Cloudy 10000 ft
Dew Point 61 °F
Humidity 57%
Rainfall 0.00 in
Snow Depth Not available.
UV 1 out of 12
Pollen 3.10 out of 12
PM2.5 Moderate
Flu Activity Not available.
METAR KAWO 280055Z AUTO 32009KT 10SM BKN100 25/16 A3002 RMK AO1

More Conditions Fewer Conditions

10-Day Weather Forecast

Almanac

Astronomy

Aug. 27, 2014 Rise Set
Actual Time 6:18 AM PDT 7:58 PM PDT
Civil Twilight 5:46 AM PDT 8:31 PM PDT
Nautical Twilight 5:05 AM PDT 9:11 PM PDT
Astronomical Twilight 4:21 AM PDT 9:55 PM PDT
Moon 8:32 AM PDT (8/27) 8:39 PM PDT (8/27)
Length of Visible Light 14h 45m
Length of Day
13h 39m
Tomorrow will be 3m 21s shorter.
Waxing Crescent, 5% of the Moon is Illuminated
Today
Waxing Crescent
Sep 2
First Quarter
Sep 8
Full
Sep 15
Last Quarter
Sep 24
New

Today's Extremes

State Highs State Lows

Community

WunderPhotos

Upload Photos

1,747,843 photos uploaded!

Nearby

Air Quality

  Air Quality AQ Index Pollutant
Yesterday Moderate
PM2.5
Yesterday Good
OZONE
Current Moderate
PM2.5
Wednesday Good
OZONE
Wednesday Good
PM2.5
Thursday Good
OZONE
Thursday Good
PM2.5
Friday Good
OZONE
Friday Good
PM2.5
Saturday Good
OZONE
Saturday Good
PM2.5

Snow Depth

Station Depth Elevation
Dungeness 0 in 4100 ft
Swamp Creek 0 in 4000 ft
Rainy Pass 0 in 4780 ft
Sasse Ridge 0 in 4200 ft
Harts Pass 0 in 6500 ft

Earthquake Activity

City Distance Mag. Time & Date
No recent earthquake activity has been reported nearby.
Minimum magnitude displayed is 2.5.

Coastal Water Temperatures

Place Temperature
Port Townsend, WA 53.1 °F
Seattle, WA 55.9 °F
Friday Harbor, WA 53.1 °F
Tacoma, WA 55.9 °F

Nearby Weather Stations